createdAt,value
2018-02-16T00:00:40.042Z,33.22
2018-02-16T00:03:06.329Z,36.35
2018-02-16T00:05:32.567Z,34.92
2018-02-16T00:07:58.792Z,31.17
2018-02-16T00:10:25.073Z,31.83
2018-02-16T00:12:51.521Z,34.67
2018-02-16T00:15:17.907Z,32.15
2018-02-16T00:17:44.408Z,30.52
2018-02-16T00:20:10.838Z,29.50
2018-02-16T00:22:37.054Z,35.22
2018-02-16T00:25:03.441Z,26.70
2018-02-16T00:27:29.736Z,28.60
2018-02-16T00:29:56.020Z,31.02
2018-02-16T00:32:22.360Z,29.58
2018-02-16T00:34:48.638Z,26.10
2018-02-16T00:37:15.078Z,29.67
2018-02-16T00:39:41.306Z,29.65
2018-02-16T00:42:07.628Z,27.02
2018-02-16T00:44:33.912Z,30.67
2018-02-16T00:47:00.266Z,28.23
2018-02-16T00:49:26.536Z,31.55
2018-02-16T00:51:52.806Z,26.15
2018-02-16T00:54:19.082Z,30.95
2018-02-16T00:56:45.339Z,25.20
2018-02-16T00:59:11.842Z,31.12
2018-02-16T01:01:38.162Z,26.27
2018-02-16T01:04:04.646Z,26.40
2018-02-16T01:06:30.867Z,30.85
2018-02-16T01:08:57.167Z,27.30
2018-02-16T01:11:23.419Z,29.27
2018-02-16T01:13:50.064Z,28.17
2018-02-16T01:16:16.403Z,24.50
2018-02-16T01:18:42.634Z,27.40
2018-02-16T01:21:08.815Z,30.15
2018-02-16T01:23:35.157Z,28.95
2018-02-16T01:26:01.450Z,27.40
2018-02-16T01:28:27.772Z,26.83
2018-02-16T01:30:54.009Z,27.35
2018-02-16T01:33:20.364Z,24.75
2018-02-16T01:35:46.629Z,26.00
2018-02-16T01:38:12.910Z,26.08
2018-02-16T01:40:39.210Z,26.65
2018-02-16T01:43:05.488Z,29.10
2018-02-16T01:45:31.762Z,29.15
2018-02-16T01:47:58.068Z,26.27
2018-02-16T01:50:24.398Z,28.00
2018-02-16T01:52:50.754Z,31.58
2018-02-16T01:55:16.939Z,28.08
2018-02-16T01:57:43.278Z,31.08
2018-02-16T02:00:09.497Z,29.35
2018-02-16T02:02:35.856Z,28.05
2018-02-16T02:05:02.146Z,31.87
2018-02-16T02:07:28.495Z,29.52
2018-02-16T02:09:54.747Z,28.38
2018-02-16T02:12:21.041Z,30.20
2018-02-16T02:14:47.406Z,30.75
2018-02-16T02:17:13.716Z,30.95
2018-02-16T02:19:39.912Z,32.70
2018-02-16T02:22:06.238Z,33.80
2018-02-16T02:24:32.640Z,32.40
2018-02-16T02:26:58.898Z,32.30
2018-02-16T02:29:25.338Z,31.65
2018-02-16T02:31:51.674Z,33.15
2018-02-16T02:34:18.049Z,31.30
2018-02-16T02:36:44.434Z,31.85
2018-02-16T02:39:10.874Z,31.62
2018-02-16T02:41:37.180Z,33.08
2018-02-16T02:44:03.587Z,33.15
2018-02-16T02:46:29.800Z,30.42
2018-02-16T02:48:56.302Z,37.00
2018-02-16T02:51:22.625Z,36.75
2018-02-16T02:53:48.862Z,28.45
2018-02-16T02:56:15.137Z,37.40
2018-02-16T02:58:41.654Z,32.05
2018-02-16T03:01:08.622Z,33.72
2018-02-16T03:03:34.962Z,36.28
2018-02-16T03:06:01.309Z,28.55
2018-02-16T03:08:27.721Z,36.60
2018-02-16T03:10:54.041Z,29.25
2018-02-16T03:13:20.267Z,30.12
2018-02-16T03:15:46.607Z,34.78
2018-02-16T03:18:13.015Z,33.13
2018-02-16T03:20:39.281Z,34.70
2018-02-16T03:23:05.660Z,34.50
2018-02-16T03:25:32.055Z,37.10
2018-02-16T03:27:58.397Z,36.17
2018-02-16T03:30:24.775Z,31.92
2018-02-16T03:32:51.050Z,37.13
2018-02-16T03:35:17.348Z,33.78
2018-02-16T03:37:43.638Z,31.35
2018-02-16T03:40:09.961Z,37.80
2018-02-16T03:42:36.244Z,34.28
2018-02-16T03:45:02.555Z,36.90
2018-02-16T03:47:28.813Z,33.75
2018-02-16T03:49:55.092Z,31.58
2018-02-16T03:52:21.397Z,36.30
2018-02-16T03:54:47.770Z,34.72
2018-02-16T03:57:14.161Z,32.42
2018-02-16T03:59:40.432Z,37.33
2018-02-16T04:02:06.727Z,32.75
2018-02-16T04:04:33.070Z,33.85
2018-02-16T04:06:59.393Z,32.58
2018-02-16T04:09:25.629Z,32.45
2018-02-16T04:11:51.988Z,35.45
2018-02-16T04:14:18.248Z,35.13
2018-02-16T04:16:44.577Z,38.35
2018-02-16T04:19:10.967Z,35.30
2018-02-16T04:21:37.283Z,36.85
2018-02-16T04:24:03.628Z,40.17
2018-02-16T04:26:29.803Z,39.72
2018-02-16T04:28:56.263Z,37.45
2018-02-16T04:31:22.444Z,35.75
2018-02-16T04:33:48.744Z,35.30
2018-02-16T04:36:15.005Z,37.03
2018-02-16T04:38:41.421Z,38.60
2018-02-16T04:41:07.753Z,37.53
2018-02-16T04:43:34.206Z,40.92
2018-02-16T04:46:00.419Z,35.30
2018-02-16T04:48:26.683Z,41.95
2018-02-16T04:50:52.921Z,42.75
2018-02-16T04:53:19.221Z,37.40
2018-02-16T04:55:45.548Z,42.15
2018-02-16T04:58:12.034Z,38.92
2018-02-16T05:00:38.275Z,43.95
2018-02-16T05:03:04.644Z,36.50
2018-02-16T05:05:30.874Z,38.78
2018-02-16T05:07:57.300Z,39.35
2018-02-16T05:10:23.578Z,43.75
2018-02-16T05:12:49.857Z,39.75
2018-02-16T05:15:16.129Z,47.85
2018-02-16T05:17:42.582Z,42.72
2018-02-16T05:20:08.933Z,43.05
2018-02-16T05:22:35.288Z,37.05
2018-02-16T05:25:01.606Z,46.67
2018-02-16T05:27:27.877Z,44.22
2018-02-16T05:29:54.123Z,50.08
2018-02-16T05:32:20.400Z,43.97
2018-02-16T05:34:46.794Z,46.00
2018-02-16T05:37:13.277Z,46.25
2018-02-16T05:39:39.531Z,45.80
2018-02-16T05:42:05.891Z,44.20
2018-02-16T05:44:32.230Z,44.60
2018-02-16T05:46:58.662Z,49.92
2018-02-16T05:49:24.974Z,47.42
2018-02-16T05:51:51.328Z,45.85
2018-02-16T05:54:17.757Z,51.35
2018-02-16T05:56:44.063Z,44.28
2018-02-16T05:59:10.544Z,46.50
2018-02-16T06:01:36.838Z,49.63
2018-02-16T06:04:03.301Z,55.00
2018-02-16T06:06:29.575Z,47.58
2018-02-16T06:08:55.982Z,50.40
2018-02-16T06:11:22.318Z,48.40
2018-02-16T06:13:48.878Z,55.97
2018-02-16T06:16:15.221Z,53.55
2018-02-16T06:18:41.680Z,44.50
2018-02-16T06:21:07.976Z,49.75
2018-02-16T06:23:34.459Z,51.22
2018-02-16T06:26:00.820Z,51.92
2018-02-16T06:28:27.208Z,50.45
2018-02-16T06:30:53.438Z,49.78
2018-02-16T06:33:19.770Z,51.20
2018-02-16T06:35:45.930Z,54.65
2018-02-16T06:38:12.183Z,52.03
2018-02-16T06:40:38.462Z,50.45
2018-02-16T06:43:04.739Z,50.35
2018-02-16T06:45:31.026Z,52.45
2018-02-16T06:47:57.291Z,51.00
2018-02-16T06:50:23.453Z,53.05
2018-02-16T06:52:49.802Z,51.83
2018-02-16T06:55:15.978Z,55.00
2018-02-16T06:57:43.247Z,56.58
2018-02-16T07:00:09.532Z,48.97
2018-02-16T07:02:35.785Z,48.65
2018-02-16T07:05:02.537Z,53.85
2018-02-16T07:07:28.859Z,51.50
2018-02-16T07:09:55.299Z,53.35
2018-02-16T07:12:21.817Z,51.58
2018-02-16T07:14:48.203Z,52.08
2018-02-16T07:17:14.515Z,55.03
2018-02-16T07:19:40.817Z,53.47
2018-02-16T07:22:07.121Z,52.17
2018-02-16T07:24:33.430Z,51.78
2018-02-16T07:26:59.798Z,49.13
2018-02-16T07:29:26.324Z,53.45
2018-02-16T07:31:52.649Z,47.85
2018-02-16T07:34:18.894Z,51.37
2018-02-16T07:36:45.102Z,50.20
2018-02-16T07:39:11.602Z,57.33
2018-02-16T07:41:37.932Z,54.20
2018-02-16T07:44:04.336Z,56.05
2018-02-16T07:46:30.579Z,55.53
2018-02-16T07:48:56.924Z,56.95
2018-02-16T07:51:23.145Z,53.75
2018-02-16T07:53:49.479Z,55.65
2018-02-16T07:56:15.738Z,63.67
2018-02-16T07:58:42.088Z,56.10
2018-02-16T08:01:08.418Z,53.28
2018-02-16T08:03:34.751Z,56.33
2018-02-16T08:06:00.971Z,53.03
2018-02-16T08:08:27.189Z,54.95
2018-02-16T08:10:53.394Z,55.85
2018-02-16T08:13:19.606Z,53.78
2018-02-16T08:15:45.874Z,59.72
2018-02-16T08:18:12.199Z,60.08
2018-02-16T08:20:38.459Z,66.28
2018-02-16T08:23:04.682Z,65.95
2018-02-16T08:25:31.897Z,52.05
2018-02-16T08:27:58.111Z,51.00
2018-02-16T08:30:24.388Z,51.45
2018-02-16T08:32:50.548Z,53.33
2018-02-16T08:35:16.820Z,48.40
2018-02-16T08:37:43.049Z,66.30
2018-02-16T08:40:09.269Z,56.17
2018-02-16T08:42:35.593Z,59.45
2018-02-16T08:45:01.917Z,65.95
2018-02-16T08:47:28.297Z,50.20
2018-02-16T08:49:54.512Z,51.95
2018-02-16T08:52:20.822Z,58.97
2018-02-16T08:54:47.087Z,53.33
2018-02-16T08:57:13.405Z,54.05
2018-02-16T08:59:39.587Z,47.30
2018-02-16T09:02:05.762Z,49.47
2018-02-16T09:04:32.032Z,54.65
2018-02-16T09:06:58.355Z,52.05
2018-02-16T09:09:24.606Z,54.85
2018-02-16T09:11:50.796Z,51.70
2018-02-16T09:14:17.142Z,54.47
2018-02-16T09:16:43.441Z,50.20
2018-02-16T09:19:13.857Z,49.05
2018-02-16T09:21:40.195Z,48.33
2018-02-16T09:24:06.715Z,59.35
2018-02-16T09:26:33.041Z,70.93
2018-02-16T09:28:59.357Z,59.97
2018-02-16T09:31:25.712Z,64.35
2018-02-16T09:33:52.080Z,65.70
2018-02-16T09:36:20.617Z,60.65
2018-02-16T09:38:47.204Z,70.20
2018-02-16T09:41:13.569Z,67.80
2018-02-16T09:43:39.916Z,66.50
2018-02-16T09:46:06.202Z,63.97
2018-02-16T09:48:32.655Z,56.10
2018-02-16T09:50:58.851Z,57.20
2018-02-16T09:53:25.128Z,50.50
2018-02-16T09:55:51.420Z,49.97
2018-02-16T09:58:17.742Z,51.77
2018-02-16T10:00:44.075Z,51.57
2018-02-16T10:03:10.469Z,52.47
2018-02-16T10:05:36.726Z,49.43
2018-02-16T10:08:02.963Z,50.00
2018-02-16T10:10:29.269Z,49.40
2018-02-16T10:12:55.592Z,47.20
2018-02-16T10:15:21.941Z,49.80
2018-02-16T10:17:48.162Z,53.67
2018-02-16T10:20:17.809Z,47.73
2018-02-16T10:22:44.147Z,47.40
2018-02-16T10:25:10.448Z,44.13
2018-02-16T10:27:36.808Z,49.40
2018-02-16T10:30:03.163Z,44.47
2018-02-16T10:32:29.492Z,45.03
2018-02-16T10:34:55.805Z,49.17
2018-02-16T10:37:22.056Z,44.37
2018-02-16T10:39:48.244Z,47.87
2018-02-16T10:42:14.567Z,45.87
2018-02-16T10:44:40.970Z,47.20
2018-02-16T10:47:07.223Z,46.50
2018-02-16T10:49:33.499Z,47.17
2018-02-16T10:51:59.745Z,43.50
2018-02-16T10:54:26.078Z,43.97
2018-02-16T10:56:52.391Z,48.53
2018-02-16T10:59:18.715Z,45.20
2018-02-16T11:01:45.115Z,47.77
2018-02-16T11:04:17.457Z,46.87
2018-02-16T11:06:48.819Z,45.97
2018-02-16T11:09:20.232Z,49.23
2018-02-16T11:11:46.622Z,46.77
2018-02-16T11:14:13.124Z,48.97
2018-02-16T11:16:39.397Z,47.43
2018-02-16T11:19:05.827Z,48.50
2018-02-16T11:21:32.241Z,44.67
2018-02-16T11:23:58.637Z,48.10
2018-02-16T11:26:25.001Z,45.40
2018-02-16T11:28:51.301Z,48.77
2018-02-16T11:31:17.607Z,45.80
2018-02-16T11:33:44.135Z,52.13
2018-02-16T11:36:10.390Z,46.67
2018-02-16T11:38:37.091Z,47.50
2018-02-16T11:41:03.521Z,51.33
2018-02-16T11:43:29.902Z,47.40
2018-02-16T11:45:56.233Z,48.90
2018-02-16T11:48:22.641Z,50.40
2018-02-16T11:50:48.866Z,52.27
2018-02-16T11:53:15.189Z,49.03
2018-02-16T11:55:41.665Z,57.37
2018-02-16T11:58:08.013Z,59.00
2018-02-16T12:00:34.294Z,56.13
2018-02-16T12:03:00.684Z,57.17
2018-02-16T12:05:27.787Z,59.27
2018-02-16T12:07:54.180Z,51.17
2018-02-16T12:10:20.485Z,50.43
2018-02-16T12:12:46.871Z,55.17
2018-02-16T12:15:13.250Z,52.60
2018-02-16T12:17:39.616Z,52.43
2018-02-16T12:20:06.001Z,71.20
2018-02-16T12:22:32.739Z,53.07
2018-02-16T12:24:58.969Z,52.43
2018-02-16T12:27:25.878Z,49.73
2018-02-16T12:29:52.186Z,52.30
2018-02-16T12:32:18.460Z,46.80
2018-02-16T12:34:44.743Z,53.27
2018-02-16T12:37:11.026Z,49.87
2018-02-16T12:39:38.190Z,53.67
2018-02-16T12:42:04.513Z,50.73
2018-02-16T12:44:30.808Z,55.10
2018-02-16T12:46:57.108Z,51.47
2018-02-16T12:49:23.301Z,49.67
2018-02-16T12:51:50.336Z,49.33
2018-02-16T12:54:16.659Z,46.43
2018-02-16T12:56:42.970Z,51.77
2018-02-16T12:59:09.220Z,48.37
2018-02-16T13:01:35.501Z,52.00
2018-02-16T13:04:01.912Z,46.93
2018-02-16T13:06:28.249Z,46.93
2018-02-16T13:08:54.566Z,43.47
2018-02-16T13:11:21.113Z,46.57
2018-02-16T13:13:47.650Z,49.73
2018-02-16T13:16:13.938Z,44.40
2018-02-16T13:18:40.322Z,48.80
2018-02-16T13:21:06.736Z,49.83
2018-02-16T13:23:33.044Z,44.00
2018-02-16T13:25:59.598Z,49.57
2018-02-16T13:28:25.784Z,46.90
2018-02-16T13:30:52.066Z,46.43
2018-02-16T13:33:18.247Z,48.27
2018-02-16T13:35:44.552Z,47.80
2018-02-16T13:38:11.133Z,48.93
2018-02-16T13:40:37.334Z,52.93
2018-02-16T13:43:03.713Z,47.47
2018-02-16T13:45:29.968Z,49.70
2018-02-16T13:47:56.238Z,49.27
2018-02-16T13:50:22.485Z,46.77
2018-02-16T13:52:48.691Z,53.60
2018-02-16T13:55:14.929Z,48.93
2018-02-16T13:57:41.236Z,46.77
2018-02-16T14:00:07.489Z,51.10
2018-02-16T14:02:33.758Z,49.33
2018-02-16T14:05:00.001Z,50.43
2018-02-16T14:07:26.248Z,47.87
2018-02-16T14:09:52.537Z,48.97
2018-02-16T14:12:18.862Z,46.43
2018-02-16T14:14:45.084Z,44.63
2018-02-16T14:17:11.396Z,52.20
2018-02-16T14:19:37.582Z,49.93
2018-02-16T14:22:04.155Z,49.00
2018-02-16T14:24:30.482Z,49.77
2018-02-16T14:26:56.830Z,49.17
2018-02-16T14:29:23.028Z,47.80
2018-02-16T14:31:49.216Z,45.03
2018-02-16T14:34:15.466Z,48.67
2018-02-16T14:36:41.840Z,50.20
2018-02-16T14:39:08.122Z,50.93
2018-02-16T14:41:34.345Z,49.33
2018-02-16T14:44:00.662Z,52.83
2018-02-16T14:46:26.962Z,50.77
2018-02-16T14:48:53.317Z,52.33
2018-02-16T14:51:19.603Z,52.47
2018-02-16T14:53:46.336Z,52.50
2018-02-16T14:56:12.667Z,49.87
2018-02-16T14:58:38.937Z,52.43
2018-02-16T15:01:05.166Z,52.03
2018-02-16T15:03:31.629Z,56.00
2018-02-16T15:05:57.870Z,52.33
2018-02-16T15:08:24.148Z,54.30
2018-02-16T15:10:50.390Z,55.90
2018-02-16T15:13:16.612Z,52.97
2018-02-16T15:15:43.039Z,58.43
2018-02-16T15:18:09.350Z,54.30
2018-02-16T15:20:35.597Z,56.60
2018-02-16T15:23:01.915Z,55.63
2018-02-16T15:25:28.339Z,56.27
2018-02-16T15:27:54.673Z,57.73
2018-02-16T15:30:20.975Z,55.80
2018-02-16T15:32:47.294Z,58.60
2018-02-16T15:35:13.840Z,57.60
2018-02-16T15:37:40.257Z,57.70
2018-02-16T15:40:06.689Z,53.80
2018-02-16T15:42:37.692Z,57.17
2018-02-16T15:45:04.180Z,55.87
2018-02-16T15:47:30.440Z,50.37
2018-02-16T15:49:56.729Z,49.83
2018-02-16T15:52:23.081Z,58.83
2018-02-16T15:54:49.360Z,57.23
2018-02-16T15:57:15.808Z,53.77
2018-02-16T15:59:42.147Z,54.90
2018-02-16T16:02:08.397Z,55.73
2018-02-16T16:04:34.667Z,52.43
2018-02-16T16:07:01.004Z,55.43
2018-02-16T16:09:27.309Z,57.47
2018-02-16T16:11:53.590Z,55.33
2018-02-16T16:14:19.922Z,56.42
2018-02-16T16:16:46.151Z,59.70
2018-02-16T16:19:12.680Z,51.00
2018-02-16T16:21:39.041Z,54.88
2018-02-16T16:24:05.497Z,61.55
2018-02-16T16:26:31.753Z,57.33
2018-02-16T16:28:58.270Z,56.78
2018-02-16T16:31:24.517Z,67.75
2018-02-16T16:33:51.013Z,68.68
2018-02-16T16:36:17.502Z,74.60
2018-02-16T16:38:43.996Z,68.32
2018-02-16T16:41:10.451Z,65.32
2018-02-16T16:43:37.253Z,61.53
2018-02-16T16:46:03.631Z,75.07
2018-02-16T16:48:29.817Z,72.12
2018-02-16T16:50:56.391Z,63.47
2018-02-16T16:53:22.638Z,73.68
2018-02-16T16:55:48.933Z,74.75
2018-02-16T16:58:16.079Z,62.22
2018-02-16T17:00:42.496Z,66.78
2018-02-16T17:03:08.704Z,57.05
2018-02-16T17:05:35.131Z,61.83
2018-02-16T17:08:01.447Z,62.85
2018-02-16T17:10:27.697Z,54.72
2018-02-16T17:12:54.387Z,50.10
2018-02-16T17:15:20.720Z,48.17
2018-02-16T17:17:46.958Z,50.58
2018-02-16T17:20:13.439Z,51.83
2018-02-16T17:22:39.744Z,53.80
2018-02-16T17:25:05.927Z,44.22
2018-02-16T17:27:32.222Z,48.15
2018-02-16T17:29:58.489Z,37.13
2018-02-16T17:32:25.304Z,42.80
2018-02-16T17:34:51.629Z,41.47
2018-02-16T17:37:18.036Z,40.80
2018-02-16T17:39:44.496Z,40.05
2018-02-16T17:42:10.829Z,45.47
2018-02-16T17:44:37.158Z,44.20
2018-02-16T17:47:03.473Z,50.28
2018-02-16T17:49:29.845Z,50.92
2018-02-16T17:51:56.178Z,41.63
2018-02-16T17:54:22.748Z,38.30
2018-02-16T17:56:49.182Z,78.40
2018-02-16T17:59:15.611Z,101.93
2018-02-16T18:01:41.877Z,108.20
2018-02-16T18:04:08.189Z,98.18
2018-02-16T18:06:34.636Z,92.28
2018-02-16T18:09:00.942Z,106.75
2018-02-16T18:11:27.306Z,101.93
2018-02-16T18:13:53.779Z,114.40
2018-02-16T18:16:20.062Z,100.97
2018-02-16T18:18:46.548Z,83.97
2018-02-16T18:21:12.907Z,76.35
2018-02-16T18:23:39.127Z,72.15
2018-02-16T18:26:05.572Z,81.68
2018-02-16T18:28:31.907Z,79.90
2018-02-16T18:30:58.112Z,84.32
2018-02-16T18:33:24.467Z,80.70
2018-02-16T18:35:50.734Z,74.68
2018-02-16T18:38:17.115Z,77.53
2018-02-16T18:40:43.365Z,77.78
2018-02-16T18:43:09.692Z,98.75
2018-02-16T18:45:36.030Z,74.62
2018-02-16T18:48:02.352Z,111.62
2018-02-16T18:50:28.625Z,81.18
2018-02-16T18:52:54.828Z,82.68
2018-02-16T18:55:21.014Z,184.15
2018-02-16T18:57:47.386Z,110.60
2018-02-16T19:00:13.793Z,83.10
2018-02-16T19:02:40.067Z,90.78
2018-02-16T19:05:06.339Z,78.62
2018-02-16T19:07:32.608Z,87.65
2018-02-16T19:09:58.885Z,87.00
2018-02-16T19:12:25.231Z,82.32
2018-02-16T19:14:51.530Z,88.97
2018-02-16T19:17:17.854Z,83.40
2018-02-16T19:19:44.363Z,77.47
2018-02-16T19:22:10.750Z,85.05
2018-02-16T19:24:37.202Z,81.72
2018-02-16T19:27:03.515Z,86.60
2018-02-16T19:29:29.716Z,97.12
2018-02-16T19:31:55.990Z,90.20
2018-02-16T19:34:22.401Z,120.72
2018-02-16T19:36:48.872Z,95.78
2018-02-16T19:39:15.102Z,97.47
2018-02-16T19:41:41.448Z,92.05
2018-02-16T19:44:07.728Z,83.68
2018-02-16T19:46:34.046Z,80.70
2018-02-16T19:49:00.312Z,95.35
2018-02-16T19:51:26.772Z,88.47
2018-02-16T19:53:53.051Z,88.85
2018-02-16T19:56:19.437Z,83.45
2018-02-16T19:58:46.152Z,93.72
2018-02-16T20:01:12.553Z,105.20
2018-02-16T20:03:38.774Z,92.22
2018-02-16T20:06:05.168Z,77.80
2018-02-16T20:08:31.513Z,84.18
2018-02-16T20:10:57.810Z,101.82
2018-02-16T20:13:24.101Z,87.47
2018-02-16T20:15:50.312Z,82.28
2018-02-16T20:18:16.656Z,77.78
2018-02-16T20:20:42.932Z,83.78
2018-02-16T20:23:09.248Z,84.35
2018-02-16T20:25:35.528Z,79.72
2018-02-16T20:28:02.131Z,70.07
2018-02-16T20:30:28.382Z,72.93
2018-02-16T20:32:55.088Z,77.75
2018-02-16T20:35:21.692Z,68.05
2018-02-16T20:37:48.020Z,75.57
2018-02-16T20:40:14.338Z,73.10
2018-02-16T20:42:40.608Z,78.85
2018-02-16T20:45:07.014Z,79.20
2018-02-16T20:47:33.396Z,76.70
2018-02-16T20:49:59.937Z,74.80
2018-02-16T20:52:26.263Z,76.47
2018-02-16T20:54:52.508Z,76.62
2018-02-16T20:57:18.664Z,73.47
2018-02-16T20:59:45.018Z,75.32
2018-02-16T21:02:11.342Z,66.78
2018-02-16T21:04:37.985Z,72.00
2018-02-16T21:07:04.325Z,73.45
2018-02-16T21:09:30.672Z,67.47
2018-02-16T21:11:58.039Z,64.10
2018-02-16T21:14:24.326Z,66.25
2018-02-16T21:16:50.603Z,73.37
2018-02-16T21:19:17.058Z,59.55
2018-02-16T21:21:43.297Z,65.47
2018-02-16T21:24:09.602Z,64.00
2018-02-16T21:26:35.990Z,64.57
2018-02-16T21:29:02.223Z,73.30
2018-02-16T21:31:28.512Z,69.28
2018-02-16T21:33:54.933Z,66.50
2018-02-16T21:36:21.475Z,67.07
2018-02-16T21:38:47.928Z,59.80
2018-02-16T21:41:14.384Z,65.57
2018-02-16T21:43:40.678Z,69.70
2018-02-16T21:46:07.128Z,69.22
2018-02-16T21:48:33.930Z,79.03
2018-02-16T21:51:00.240Z,71.65
2018-02-16T21:53:26.504Z,65.25
2018-02-16T21:55:52.816Z,71.50
2018-02-16T21:58:19.070Z,65.95
2018-02-16T22:00:45.381Z,61.13
2018-02-16T22:03:11.573Z,65.43
2018-02-16T22:05:38.077Z,60.35
2018-02-16T22:08:04.545Z,66.10
2018-02-16T22:10:30.965Z,65.03
2018-02-16T22:12:57.175Z,59.47
2018-02-16T22:15:23.452Z,58.95
2018-02-16T22:17:49.895Z,60.40
2018-02-16T22:20:16.189Z,59.50
2018-02-16T22:22:42.396Z,59.10
2018-02-16T22:25:08.712Z,59.60
2018-02-16T22:27:35.000Z,62.05
2018-02-16T22:30:01.220Z,60.75
2018-02-16T22:32:27.451Z,62.92
2018-02-16T22:34:53.856Z,65.80
2018-02-16T22:37:20.194Z,63.85
2018-02-16T22:39:46.761Z,61.28
2018-02-16T22:42:13.046Z,65.00
2018-02-16T22:44:39.442Z,66.50
2018-02-16T22:47:05.788Z,69.70
2018-02-16T22:49:32.108Z,67.50
2018-02-16T22:51:58.393Z,74.07
2018-02-16T22:54:24.659Z,76.32
2018-02-16T22:56:51.003Z,73.20
2018-02-16T22:59:17.490Z,76.62
2018-02-16T23:01:43.987Z,68.45
2018-02-16T23:04:10.330Z,69.62
2018-02-16T23:06:36.725Z,69.22
2018-02-16T23:09:03.128Z,70.22
2018-02-16T23:11:29.406Z,71.35
2018-02-16T23:13:55.761Z,74.75
2018-02-16T23:16:22.239Z,70.85
2018-02-16T23:18:48.604Z,78.53
2018-02-16T23:21:14.944Z,71.50
2018-02-16T23:23:41.282Z,68.50
2018-02-16T23:26:07.678Z,72.20
2018-02-16T23:28:34.144Z,71.53
2018-02-16T23:31:00.469Z,68.45
2018-02-16T23:33:26.824Z,72.72
2018-02-16T23:35:53.151Z,72.57
2018-02-16T23:38:19.534Z,78.28
2018-02-16T23:40:45.949Z,74.45
2018-02-16T23:43:12.161Z,70.62
2018-02-16T23:45:38.479Z,70.35
2018-02-16T23:48:04.814Z,66.07
2018-02-16T23:50:31.141Z,74.15
2018-02-16T23:52:57.489Z,71.05
2018-02-16T23:55:23.775Z,74.82
2018-02-16T23:57:50.162Z,73.45
